createdAt,value
2017-12-22T00:02:35.044Z,97277
2017-12-22T00:08:03.227Z,97263
2017-12-22T00:13:37.807Z,97267
2017-12-22T00:19:06.002Z,97266
2017-12-22T00:24:34.971Z,97271
2017-12-22T00:30:03.177Z,97275
2017-12-22T00:35:32.129Z,97271
2017-12-22T00:41:00.317Z,97274
2017-12-22T00:46:28.489Z,97269
2017-12-22T00:51:56.687Z,97255
2017-12-22T00:57:24.864Z,97261
2017-12-22T01:02:53.037Z,97269
2017-12-22T01:08:21.227Z,97265
2017-12-22T01:13:50.384Z,97258
2017-12-22T01:19:19.417Z,97270
2017-12-22T01:24:48.594Z,97258
2017-12-22T01:30:17.022Z,97256
2017-12-22T01:35:45.198Z,97253
2017-12-22T01:41:14.149Z,97253
2017-12-22T01:46:42.584Z,97252
2017-12-22T01:52:11.037Z,97254
2017-12-22T01:57:39.224Z,97255
2017-12-22T02:03:07.394Z,97240
2017-12-22T02:08:35.590Z,97233
2017-12-22T02:14:03.777Z,97236
2017-12-22T02:19:32.722Z,97238
2017-12-22T02:25:01.658Z,97227
2017-12-22T02:30:29.826Z,97232
2017-12-22T02:35:57.989Z,97225
2017-12-22T02:41:26.935Z,97218
2017-12-22T02:46:55.873Z,97223
2017-12-22T02:52:24.825Z,97224
2017-12-22T02:57:53.012Z,97220
2017-12-22T03:03:21.163Z,97222
2017-12-22T03:08:49.357Z,97217
2017-12-22T03:14:18.327Z,97214
2017-12-22T03:19:46.504Z,97217
2017-12-22T03:25:14.679Z,97210
2017-12-22T03:30:42.919Z,97204
2017-12-22T03:36:11.113Z,97212
2017-12-22T03:41:43.042Z,97207
2017-12-22T03:47:11.235Z,97218
2017-12-22T03:52:39.410Z,97209
2017-12-22T03:58:07.583Z,97207
2017-12-22T04:03:35.770Z,97203
2017-12-22T04:09:04.730Z,97210
2017-12-22T04:14:32.920Z,97210
2017-12-22T04:20:01.089Z,97216
2017-12-22T04:25:29.276Z,97202
2017-12-22T04:30:58.226Z,97197
2017-12-22T04:36:27.181Z,97200
2017-12-22T04:41:55.344Z,97199
2017-12-22T04:47:23.520Z,97201
2017-12-22T04:52:51.683Z,97192
2017-12-22T04:58:19.857Z,97197
2017-12-22T05:03:48.074Z,97179
2017-12-22T05:09:16.245Z,97185
2017-12-22T05:14:44.443Z,97189
2017-12-22T05:20:13.599Z,97185
2017-12-22T05:25:44.175Z,97168
2017-12-22T05:31:12.362Z,97157
2017-12-22T05:36:40.684Z,97163
2017-12-22T05:42:09.752Z,97174
2017-12-22T05:47:37.956Z,97171
2017-12-22T05:53:06.165Z,97176
2017-12-22T05:58:34.353Z,97170
2017-12-22T06:04:02.559Z,97170
2017-12-22T06:09:31.541Z,97177
2017-12-22T06:14:59.753Z,97177
2017-12-22T06:20:28.858Z,97172
2017-12-22T06:25:57.994Z,97168
2017-12-22T06:31:33.780Z,97158
2017-12-22T06:37:01.974Z,97159
2017-12-22T06:42:31.082Z,97157
2017-12-22T06:47:59.293Z,97156
2017-12-22T06:53:28.246Z,97165
2017-12-22T06:58:56.434Z,97160
2017-12-22T07:04:24.637Z,97161
2017-12-22T07:09:53.574Z,97166
2017-12-22T07:15:22.609Z,97178
2017-12-22T07:20:50.790Z,97181
2017-12-22T07:26:18.961Z,97184
2017-12-22T07:31:47.141Z,97183
2017-12-22T07:37:15.343Z,97178
2017-12-22T07:42:43.563Z,97175
2017-12-22T07:48:11.744Z,97182
2017-12-22T07:53:39.933Z,97174
2017-12-22T07:59:08.116Z,97182
2017-12-22T08:04:37.302Z,97184
2017-12-22T08:10:05.862Z,97192
2017-12-22T08:15:34.084Z,97185
2017-12-22T08:21:02.262Z,97187
2017-12-22T08:26:30.429Z,97177
2017-12-22T08:31:58.622Z,97188
2017-12-22T08:37:27.527Z,97190
2017-12-22T08:42:56.532Z,97178
2017-12-22T08:48:24.755Z,97183
2017-12-22T08:53:53.188Z,97180
2017-12-22T08:59:21.352Z,97185
2017-12-22T09:04:49.615Z,97183
2017-12-22T09:10:17.772Z,97198
2017-12-22T09:15:46.704Z,97188
2017-12-22T09:21:14.882Z,97187
2017-12-22T09:26:43.125Z,97175
2017-12-22T09:32:11.303Z,97183
2017-12-22T09:37:39.456Z,97179
2017-12-22T09:43:07.642Z,97182
2017-12-22T09:48:35.808Z,97169
2017-12-22T09:54:03.972Z,97167
2017-12-22T09:59:37.967Z,97165
2017-12-22T10:05:06.155Z,97162
2017-12-22T10:10:34.358Z,97141
2017-12-22T10:16:03.297Z,97139
2017-12-22T10:21:32.223Z,97126
2017-12-22T10:27:03.186Z,97123
2017-12-22T10:32:31.404Z,97110
2017-12-22T10:37:59.714Z,97103
2017-12-22T10:43:27.928Z,97085
2017-12-22T10:48:56.096Z,97085
2017-12-22T10:54:25.298Z,97085
2017-12-22T10:59:55.185Z,97087
2017-12-22T11:05:23.379Z,97079
2017-12-22T11:10:51.597Z,97071
2017-12-22T11:21:52.510Z,97062
2017-12-22T11:27:20.706Z,97049
2017-12-22T11:32:49.981Z,97050
2017-12-22T11:38:18.172Z,97042
2017-12-22T11:43:57.852Z,97044
2017-12-22T11:49:26.101Z,97042
2017-12-22T11:54:54.353Z,97033
2017-12-22T12:00:23.320Z,97031
2017-12-22T12:05:51.530Z,97032
2017-12-22T12:11:19.791Z,97028
2017-12-22T12:16:48.919Z,97030
2017-12-22T12:22:17.272Z,97023
2017-12-22T12:27:45.515Z,97022
2017-12-22T12:33:13.722Z,97024
2017-12-22T12:38:42.958Z,97015
2017-12-22T12:44:11.481Z,97015
2017-12-22T12:49:40.486Z,97003
2017-12-22T12:55:08.644Z,97001
2017-12-22T13:00:39.864Z,97001
2017-12-22T13:06:09.250Z,96997
2017-12-22T13:11:40.341Z,96976
2017-12-22T13:17:08.536Z,97001
2017-12-22T13:22:37.496Z,97001
2017-12-22T13:28:05.708Z,97012
2017-12-22T13:33:33.896Z,97009
2017-12-22T13:39:02.081Z,97021
2017-12-22T13:44:30.301Z,97019
2017-12-22T13:49:58.595Z,97011
2017-12-22T13:55:26.787Z,97004
2017-12-22T14:00:54.971Z,97004
2017-12-22T14:06:23.649Z,97003
2017-12-22T14:11:51.804Z,97015
2017-12-22T14:17:20.803Z,97014
2017-12-22T14:22:50.005Z,97019
2017-12-22T14:28:18.241Z,97022
2017-12-22T14:34:10.985Z,97033
2017-12-22T14:39:39.172Z,97031
2017-12-22T14:45:16.827Z,97029
2017-12-22T14:50:45.820Z,97034
2017-12-22T14:56:14.770Z,97032
2017-12-22T15:01:42.962Z,97040
2017-12-22T15:07:11.329Z,97047
2017-12-22T15:24:32.213Z,97057
2017-12-22T15:30:00.394Z,97056
2017-12-22T15:35:28.585Z,97056
2017-12-22T15:41:00.548Z,97057
2017-12-22T15:46:28.749Z,97074
2017-12-22T15:51:56.925Z,97075
2017-12-22T15:57:25.099Z,97080
2017-12-22T16:02:53.257Z,97077
2017-12-22T16:08:22.100Z,97084
2017-12-22T16:13:50.287Z,97076
2017-12-22T16:19:18.499Z,97084
2017-12-22T16:24:46.769Z,97083
2017-12-22T16:30:15.073Z,97084
2017-12-22T16:35:44.113Z,97084
2017-12-22T16:41:13.262Z,97087
2017-12-22T16:46:41.500Z,97090
2017-12-22T16:52:09.719Z,97092
2017-12-22T16:57:37.894Z,97110
2017-12-22T17:03:06.150Z,97090
2017-12-22T17:08:34.419Z,97107
2017-12-22T17:14:02.612Z,97102
2017-12-22T17:19:30.783Z,97115
2017-12-22T17:24:59.803Z,97112
2017-12-22T17:30:27.990Z,97124
2017-12-22T17:35:57.149Z,97123
2017-12-22T17:41:26.114Z,97135
2017-12-22T17:46:54.295Z,97142
2017-12-22T17:52:22.476Z,97150
2017-12-22T17:57:50.821Z,97149
2017-12-22T18:03:19.044Z,97146
2017-12-22T18:08:48.343Z,97154
2017-12-22T18:14:17.518Z,97157
2017-12-22T18:19:45.828Z,97168
2017-12-22T18:25:14.040Z,97186
2017-12-22T18:30:42.995Z,97192
2017-12-22T18:36:11.949Z,97201
2017-12-22T18:41:40.133Z,97192
2017-12-22T18:47:08.326Z,97189
2017-12-22T18:52:36.511Z,97197
2017-12-22T18:58:05.477Z,97182
2017-12-22T19:03:35.763Z,97188
2017-12-22T19:09:03.964Z,97197
2017-12-22T19:14:32.193Z,97193
2017-12-22T19:20:00.388Z,97197
2017-12-22T19:25:29.346Z,97204
2017-12-22T19:30:57.526Z,97198
2017-12-22T19:36:26.559Z,97197
2017-12-22T19:41:57.792Z,97200
2017-12-22T19:47:26.756Z,97199
2017-12-22T19:52:54.932Z,97210
2017-12-22T19:58:23.896Z,97220
2017-12-22T20:03:53.092Z,97217
2017-12-22T20:09:21.259Z,97220
2017-12-22T20:14:49.602Z,97227
2017-12-22T20:20:17.885Z,97228
2017-12-22T20:25:46.146Z,97238
2017-12-22T20:31:14.352Z,97245
2017-12-22T20:36:43.560Z,97242
2017-12-22T20:42:12.517Z,97247
2017-12-22T20:47:43.801Z,97263
2017-12-22T20:53:12.862Z,97266
2017-12-22T20:58:43.247Z,97274
2017-12-22T21:04:19.874Z,97276
2017-12-22T21:09:48.227Z,97279
2017-12-22T21:15:16.478Z,97279
2017-12-22T21:20:45.532Z,97292
2017-12-22T21:26:13.796Z,97286
2017-12-22T21:31:42.050Z,97284
2017-12-22T21:37:10.295Z,97279
2017-12-22T21:42:39.327Z,97272
2017-12-22T21:48:07.573Z,97293
2017-12-22T21:53:36.006Z,97292
2017-12-22T21:59:05.065Z,97309
2017-12-22T22:04:35.123Z,97326
2017-12-22T22:10:03.423Z,97314
2017-12-22T22:15:31.658Z,97326
2017-12-22T22:20:59.956Z,97318
2017-12-22T22:26:28.972Z,97319
2017-12-22T22:31:58.307Z,97314
2017-12-22T22:37:26.656Z,97309
2017-12-22T22:42:55.628Z,97306
2017-12-22T22:48:23.827Z,97316
2017-12-22T22:53:52.775Z,97312
2017-12-22T22:59:21.734Z,97306
2017-12-22T23:04:49.937Z,97308
2017-12-22T23:10:19.022Z,97294
2017-12-22T23:15:48.251Z,97304
2017-12-22T23:21:16.459Z,97295
2017-12-22T23:26:44.641Z,97297
2017-12-22T23:32:12.860Z,97294
2017-12-22T23:37:42.035Z,97285
2017-12-22T23:43:10.247Z,97298
2017-12-22T23:48:38.514Z,97295
2017-12-22T23:54:06.783Z,97296
2017-12-22T23:59:35.743Z,97276
